Portland, Oregon
Traffic Map
Current Weather Conditions
Portland, Oregon
Broken Clouds
Broken Clouds
12°
Feels Like: 12°
Wind Chill: 12° Ceiling: 3200
Heat Index: 12° Visibility: 10mi
Dew Point: Wind: 7mph
Humidity: 77% Direction: 310° (NW)
Pressure: 30.03in Gusts: 0mph
Raw Report DataKPDX 251053Z 31006KT 10SM BKN032 12/08 A3003 RMK AO2 SLP167 T01170078
Traffic Incident Summary
Active as of:
Severity:
Category:
InformationThere was an issue retrieving the traffic information for this location. Please try a different location or try again shortly.
Advertisements
Track Severe Weather on mobile